This is the latest recevied weather packets stored in our database for station/object EI4HQ. If no packets are shown the sender has not sent any weather packets the latest 1 day(s).
| Time | Temp. | Humidity | Pressure | Rain* | Wind** | Luminosity | Snow |
|---|---|---|---|---|---|---|---|
| 1778121363 | 8.33° C | 86% | 1012.7 hPa | 0 mm | - | - | - |
| 1778120283 | 8.33° C | 86% | 1012.8 hPa | 0 mm | - | - | - |
| 1778119743 | 8.89° C | 86% | 1012.9 hPa | 0 mm | - | - | - |
| 1778118843 | 8.89° C | 85% | 1012.9 hPa | 0 mm | - | - | - |
| 1778117763 | 8.89° C | 85% | 1013 hPa | 0 mm | - | - | - |
| 1778117223 | 8.89° C | 85% | 1013 hPa | 0 mm | - | - | - |
| 1778116683 | 8.89° C | 85% | 1013 hPa | 0 mm | - | - | - |
| 1778116143 | 8.89° C | 85% | 1013 hPa | 0 mm | - | - | - |
| 1778115243 | 8.89° C | 84% | 1013.1 hPa | 0 mm | - | - | - |
| 1778114163 | 8.89° C | 83% | 1013.3 hPa | 0 mm | - | - | - |
| 1778113623 | 9.44° C | 82% | 1013.3 hPa | 0 mm | - | - | - |
| 1778112543 | 10° C | 82% | 1013.5 hPa | 0 mm | - | - | - |
| 1778062143 | 11.67° C | 76% | 1015 hPa | 0 mm | - | - | - |
| 1778054418 | 10.56° C | 82% | 1015.4 hPa | 0 mm | - | - | - |
| 1778041638 | 8.89° C | 83% | 1015 hPa | 0 mm | - | - | - |
| 1778041083 | 8.89° C | 83% | 1015 hPa | 0 mm | - | - | - |
| 1778040543 | 8.89° C | 83% | 1015 hPa | 0 mm | - | - | - |
| 1778038563 | 9.44° C | 83% | 1015.1 hPa | 0 mm | - | - | - |
| 1778038023 | 9.44° C | 83% | 1015.2 hPa | 0 mm | - | - | - |
| 1778037483 | 9.44° C | 83% | 1015.3 hPa | 0 mm | - | - | - |
| 1778036943 | 9.44° C | 83% | 1015.3 hPa | 0 mm | - | - | - |
| 1778036043 | 9.44° C | 83% | 1015.4 hPa | 0 mm | - | - | - |
* Rain latest hour (hover to see other rain measurements)
** Current wind speed in m/s (hover to see current wind gust speed)